Time;durP1;ratioP1;P1;durP2;ratioP2;P2;SDS_P1;SDS_P2;PMS_P1;PMS_P2;Temp;Humidity;BMP_temperature;BMP_pressure;BME280_temperature;BME280_humidity;BME280_pressure;Samples;Min_cycle;Max_cycle;Signal;HPM_P1;HPM_P2
2022/11/27 00:01:40;;;;;;;21.52;10.30;;;;;;;;;;4993625;28;20050;-65
2022/11/27 00:04:07;;;;;;;22.88;10.68;;;;;;;;;;4992292;28;20023;-66
2022/11/27 00:06:34;;;;;;;22.95;10.38;;;;;;;;;;4993552;28;20058;-66
2022/11/27 00:09:00;;;;;;;20.70;10.02;;;;;;;;;;4992165;28;20026;-67
2022/11/27 00:11:27;;;;;;;24.08;11.27;;;;;;;;;;5012187;28;20087;-67
2022/11/27 00:13:53;;;;;;;28.80;12.68;;;;;;;;;;5027778;28;20048;-67
2022/11/27 00:16:20;;;;;;;24.98;9.90;;;;;;;;;;5012747;28;20405;-67
2022/11/27 00:18:46;;;;;;;20.13;10.57;;;;;;;;;;5028082;28;20107;-67
2022/11/27 00:21:14;;;;;;;22.65;10.38;;;;;;;;;;5012963;28;20026;-67
2022/11/27 00:23:40;;;;;;;20.95;10.40;;;;;;;;;;5012622;28;20026;-67
2022/11/27 00:26:06;;;;;;;19.85;10.45;;;;;;;;;;5028105;28;20036;-67
2022/11/27 00:28:33;;;;;;;25.02;10.65;;;;;;;;;;5012507;28;20455;-66
2022/11/27 00:31:02;;;;;;;22.50;10.40;;;;;;;;;;5028029;28;20029;-69
2022/11/27 00:33:28;;;;;;;18.20;9.80;;;;;;;;;;5027877;28;20034;-66
2022/11/27 00:35:54;;;;;;;23.67;11.18;;;;;;;;;;5012809;28;20121;-67
2022/11/27 00:38:20;;;;;;;22.50;10.90;;;;;;;;;;5012700;28;20037;-68
2022/11/27 00:40:47;;;;;;;21.58;10.85;;;;;;;;;;5012462;28;20022;-67
2022/11/27 00:43:13;;;;;;;22.10;10.95;;;;;;;;;;5012498;28;20032;-67
2022/11/27 00:45:39;;;;;;;22.90;11.43;;;;;;;;;;5012045;28;20057;-67
2022/11/27 00:48:05;;;;;;;22.38;11.18;;;;;;;;;;5012454;28;20474;-66
2022/11/27 00:50:31;;;;;;;20.88;10.80;;;;;;;;;;5012420;28;20079;-67
2022/11/27 00:52:58;;;;;;;23.23;11.43;;;;;;;;;;5012180;28;20079;-67
2022/11/27 00:55:24;;;;;;;22.77;12.40;;;;;;;;;;5027542;28;20030;-67
2022/11/27 00:57:50;;;;;;;25.17;14.25;;;;;;;;;;5027370;28;20157;-67
2022/11/27 01:00:16;;;;;;;24.45;14.20;;;;;;;;;;5027800;28;20573;-67
2022/11/27 01:02:42;;;;;;;24.42;12.77;;;;;;;;;;5012272;28;20058;-67
2022/11/27 01:05:08;;;;;;;31.30;14.25;;;;;;;;;;5026751;28;20030;-66
2022/11/27 01:07:34;;;;;;;22.75;12.27;;;;;;;;;;5012016;28;20033;-68
2022/11/27 01:10:00;;;;;;;20.90;12.43;;;;;;;;;;5005073;28;20018;-67
2022/11/27 01:12:26;;;;;;;24.98;12.25;;;;;;;;;;4992203;28;20471;-67
2022/11/27 01:14:52;;;;;;;22.58;13.23;;;;;;;;;;4991736;28;20027;-67
2022/11/27 01:17:18;;;;;;;23.48;12.05;;;;;;;;;;4991955;28;20410;-67
2022/11/27 01:19:44;;;;;;;22.38;12.45;;;;;;;;;;5007076;28;20037;-67
2022/11/27 01:22:10;;;;;;;23.48;13.25;;;;;;;;;;5007049;28;20077;-66
2022/11/27 01:24:36;;;;;;;23.90;13.20;;;;;;;;;;4991904;28;20029;-67
2022/11/27 01:27:02;;;;;;;26.25;12.88;;;;;;;;;;5006910;28;20483;-67
2022/11/27 01:29:28;;;;;;;23.80;13.35;;;;;;;;;;4992030;28;20034;-67
2022/11/27 01:31:54;;;;;;;23.42;13.10;;;;;;;;;;5006805;28;20030;-67
2022/11/27 01:34:20;;;;;;;22.60;12.55;;;;;;;;;;4991841;28;20097;-65
2022/11/27 01:36:46;;;;;;;24.48;14.32;;;;;;;;;;4991748;28;20026;-66
2022/11/27 01:39:20;;;;;;;23.42;13.57;;;;;;;;;;4991951;28;20037;-67
2022/11/27 01:41:46;;;;;;;27.88;13.40;;;;;;;;;;4991831;28;20026;-67
2022/11/27 01:44:24;;;;;;;24.20;13.13;;;;;;;;;;5007579;28;20491;-65
2022/11/27 01:46:57;;;;;;;26.73;14.48;;;;;;;;;;4992757;28;20207;-67
2022/11/27 01:49:26;;;;;;;23.67;13.27;;;;;;;;;;4992345;28;20291;-67
2022/11/27 01:51:58;;;;;;;26.05;13.80;;;;;;;;;;4992828;28;20113;-67
2022/11/27 01:54:25;;;;;;;23.05;13.05;;;;;;;;;;4991881;28;20572;-67
2022/11/27 01:56:55;;;;;;;23.75;13.93;;;;;;;;;;4991737;28;20033;-66
2022/11/27 01:59:21;;;;;;;35.38;15.13;;;;;;;;;;5006483;28;20018;-66
2022/11/27 02:01:47;;;;;;;24.70;12.73;;;;;;;;;;5006607;28;20456;-66
2022/11/27 02:04:13;;;;;;;26.40;13.07;;;;;;;;;;5006396;28;20486;-66
2022/11/27 02:06:39;;;;;;;29.88;14.10;;;;;;;;;;4991746;28;20037;-67
2022/11/27 02:09:05;;;;;;;21.08;13.02;;;;;;;;;;4991852;28;20399;-65
2022/11/27 02:11:55;;;;;;;23.45;12.80;;;;;;;;;;4991457;28;20422;-68
2022/11/27 02:14:24;;;;;;;22.63;12.82;;;;;;;;;;4991150;28;20101;-68
2022/11/27 02:16:53;;;;;;;22.30;12.60;;;;;;;;;;4991128;28;20030;-66
2022/11/27 02:19:26;;;;;;;23.27;13.25;;;;;;;;;;5006310;28;20069;-67
2022/11/27 02:22:07;;;;;;;23.05;13.20;;;;;;;;;;5005590;28;20109;-66
2022/11/27 02:24:39;;;;;;;22.42;12.40;;;;;;;;;;5025813;28;20030;-65
2022/11/27 02:27:08;;;;;;;25.80;12.60;;;;;;;;;;5010802;28;20124;-66
2022/11/27 02:29:35;;;;;;;25.58;14.02;;;;;;;;;;5010592;28;20128;-66
2022/11/27 02:32:13;;;;;;;23.58;13.45;;;;;;;;;;5010769;28;20094;-66
2022/11/27 02:34:45;;;;;;;21.33;12.77;;;;;;;;;;5010304;28;20088;-67
2022/11/27 02:37:26;;;;;;;22.67;12.82;;;;;;;;;;5010585;28;20085;-68
2022/11/27 02:39:57;;;;;;;23.13;12.88;;;;;;;;;;5025793;28;20022;-67
2022/11/27 02:42:26;;;;;;;21.17;12.57;;;;;;;;;;5025866;28;20030;-65
2022/11/27 02:45:00;;;;;;;22.80;13.10;;;;;;;;;;5010438;28;20484;-67
2022/11/27 02:47:26;;;;;;;21.02;12.25;;;;;;;;;;5010513;28;20038;-67
2022/11/27 02:49:55;;;;;;;23.88;11.45;;;;;;;;;;5025612;28;20026;-66
2022/11/27 02:52:22;;;;;;;24.90;12.07;;;;;;;;;;5025625;28;20060;-67
2022/11/27 02:54:49;;;;;;;21.40;12.27;;;;;;;;;;5010162;28;20478;-67
2022/11/27 02:57:16;;;;;;;21.42;11.48;;;;;;;;;;5025518;28;20041;-66
2022/11/27 02:59:43;;;;;;;20.90;12.93;;;;;;;;;;5010256;28;20046;-67
2022/11/27 03:02:11;;;;;;;20.80;11.70;;;;;;;;;;5010415;28;20025;-67
2022/11/27 03:04:41;;;;;;;19.50;11.98;;;;;;;;;;5010165;28;20386;-67
2022/11/27 03:07:10;;;;;;;21.30;11.27;;;;;;;;;;5011213;28;20026;-67
2022/11/27 03:09:39;;;;;;;21.50;12.75;;;;;;;;;;5026278;28;20049;-67
2022/11/27 03:12:05;;;;;;;;;;;;;;;;;;4995345;28;20173;-67
2022/11/27 03:14:31;;;;;;;102.00;60.88;;;;;;;;;;5010001;28;19964;-67
2022/11/27 03:17:06;;;;;;;26.13;16.58;;;;;;;;;;5009563;28;20030;-66
2022/11/27 03:19:39;;;;;;;21.25;12.40;;;;;;;;;;4994422;28;20022;-66
2022/11/27 03:22:05;;;;;;;20.25;11.75;;;;;;;;;;4994628;28;20045;-68
2022/11/27 03:24:32;;;;;;;24.65;12.50;;;;;;;;;;4994152;28;20113;-66
2022/11/27 03:26:58;;;;;;;21.15;12.57;;;;;;;;;;5009347;28;20037;-67
2022/11/27 03:29:27;;;;;;;19.65;11.85;;;;;;;;;;5009336;28;20041;-68
2022/11/27 03:31:54;;;;;;;21.42;12.38;;;;;;;;;;4994166;28;20046;-67
2022/11/27 03:34:20;;;;;;;23.05;12.65;;;;;;;;;;4993883;28;20034;-67
2022/11/27 03:36:46;;;;;;;25.80;12.20;;;;;;;;;;4994184;28;20026;-67
2022/11/27 03:39:13;;;;;;;22.13;11.82;;;;;;;;;;4994025;28;20022;-67
2022/11/27 03:42:05;;;;;;;20.45;11.57;;;;;;;;;;4994156;28;20489;-67
2022/11/27 03:44:38;;;;;;;21.02;11.90;;;;;;;;;;4991887;28;20034;-68
2022/11/27 03:47:17;;;;;;;22.90;11.65;;;;;;;;;;4994102;28;20022;-65
2022/11/27 03:49:51;;;;;;;19.95;12.45;;;;;;;;;;4993870;28;20101;-67
2022/11/27 03:52:24;;;;;;;20.95;12.10;;;;;;;;;;4994099;28;20027;-67
2022/11/27 03:55:03;;;;;;;21.55;12.00;;;;;;;;;;4993758;28;20034;-67
2022/11/27 03:57:33;;;;;;;19.88;13.23;;;;;;;;;;4993802;28;20031;-68
2022/11/27 04:00:01;;;;;;;22.00;11.70;;;;;;;;;;4993777;28;20100;-65
2022/11/27 04:02:30;;;;;;;21.35;12.73;;;;;;;;;;4993643;28;20029;-67
2022/11/27 04:04:56;;;;;;;26.70;13.20;;;;;;;;;;5008706;28;20554;-67
2022/11/27 04:07:22;;;;;;;23.52;12.43;;;;;;;;;;4993526;28;20038;-68
2022/11/27 04:09:48;;;;;;;24.25;12.90;;;;;;;;;;4993670;28;20138;-66
2022/11/27 04:12:15;;;;;;;25.27;13.23;;;;;;;;;;4993564;28;20055;-66
2022/11/27 04:14:41;;;;;;;21.45;12.15;;;;;;;;;;4993428;28;20029;-67
2022/11/27 04:17:07;;;;;;;23.83;12.80;;;;;;;;;;4993085;28;20073;-66
2022/11/27 04:19:33;;;;;;;21.38;12.75;;;;;;;;;;4992169;28;20480;-66
2022/11/27 04:21:59;;;;;;;23.80;12.73;;;;;;;;;;4993294;28;20069;-67
2022/11/27 04:24:25;;;;;;;26.00;12.93;;;;;;;;;;4993239;28;20030;-67
2022/11/27 04:26:51;;;;;;;25.75;13.27;;;;;;;;;;4993371;28;20030;-67
2022/11/27 04:29:17;;;;;;;21.40;12.85;;;;;;;;;;4993135;28;20395;-67
2022/11/27 04:31:43;;;;;;;22.90;12.73;;;;;;;;;;4993297;28;20154;-67
2022/11/27 04:34:09;;;;;;;22.85;13.50;;;;;;;;;;4993067;28;20026;-66
2022/11/27 04:36:35;;;;;;;23.55;12.57;;;;;;;;;;4993216;28;20038;-66
2022/11/27 04:39:01;;;;;;;22.30;13.45;;;;;;;;;;4992998;28;20112;-67
2022/11/27 04:41:28;;;;;;;24.48;13.35;;;;;;;;;;4993296;28;20066;-67
2022/11/27 04:43:54;;;;;;;23.08;13.00;;;;;;;;;;4992570;28;20058;-67
2022/11/27 04:46:20;;;;;;;24.25;13.30;;;;;;;;;;5007736;28;20242;-67
2022/11/27 04:48:46;;;;;;;22.98;12.57;;;;;;;;;;4993004;28;20427;-67
2022/11/27 04:51:12;;;;;;;21.85;12.60;;;;;;;;;;4992808;28;20100;-67
2022/11/27 04:53:38;;;;;;;22.83;13.38;;;;;;;;;;4992681;28;20030;-66
2022/11/27 04:56:04;;;;;;;21.90;12.88;;;;;;;;;;4993084;28;20651;-67
2022/11/27 04:58:30;;;;;;;23.60;13.52;;;;;;;;;;4992835;28;20038;-67
2022/11/27 05:00:56;;;;;;;24.88;13.50;;;;;;;;;;4992336;28;20026;-67
2022/11/27 05:03:22;;;;;;;22.55;12.38;;;;;;;;;;4992608;28;20058;-66
2022/11/27 05:05:57;;;;;;;22.45;13.10;;;;;;;;;;4992773;28;20026;-67
2022/11/27 05:08:24;;;;;;;21.92;13.27;;;;;;;;;;4992581;28;20032;-66
2022/11/27 05:10:59;;;;;;;23.63;13.32;;;;;;;;;;4992345;28;20521;-66
2022/11/27 05:13:25;;;;;;;22.67;12.60;;;;;;;;;;5007481;28;20030;-67
2022/11/27 05:15:51;;;;;;;22.75;13.52;;;;;;;;;;4992502;28;20631;-68
2022/11/27 05:18:17;;;;;;;23.77;13.63;;;;;;;;;;4992133;28;20038;-67
2022/11/27 05:20:43;;;;;;;25.65;14.63;;;;;;;;;;4992284;28;20022;-67
2022/11/27 05:23:09;;;;;;;22.08;12.82;;;;;;;;;;5007221;28;20072;-67
2022/11/27 05:25:35;;;;;;;20.15;12.73;;;;;;;;;;5007271;28;20018;-67
2022/11/27 05:28:01;;;;;;;24.05;12.85;;;;;;;;;;4992194;28;20037;-67
2022/11/27 05:30:27;;;;;;;23.30;13.27;;;;;;;;;;5019109;23;20108;-66
2022/11/27 05:32:53;;;;;;;21.17;13.18;;;;;;;;;;4994462;28;20391;-65
2022/11/27 05:35:19;;;;;;;22.70;13.95;;;;;;;;;;4994396;28;20018;-65
2022/11/27 05:37:44;;;;;;;22.08;12.85;;;;;;;;;;4993508;28;20041;-65
2022/11/27 05:40:11;;;;;;;21.83;13.10;;;;;;;;;;4994761;28;20403;-65
2022/11/27 05:42:37;;;;;;;21.27;12.80;;;;;;;;;;4977196;28;20467;-65
2022/11/27 05:45:03;;;;;;;26.50;14.25;;;;;;;;;;4994808;28;20110;-65
2022/11/27 05:47:29;;;;;;;24.40;13.82;;;;;;;;;;4994894;28;20030;-66
2022/11/27 05:49:55;;;;;;;23.70;13.38;;;;;;;;;;4977252;28;20077;-64
2022/11/27 05:52:21;;;;;;;21.33;13.45;;;;;;;;;;4976980;28;20034;-66
2022/11/27 05:54:47;;;;;;;21.77;13.20;;;;;;;;;;4994366;28;20475;-66
2022/11/27 05:57:13;;;;;;;24.48;13.90;;;;;;;;;;4977253;28;20027;-66
2022/11/27 05:59:39;;;;;;;22.50;14.25;;;;;;;;;;4994067;28;20036;-65
2022/11/27 06:02:05;;;;;;;23.17;13.15;;;;;;;;;;4994407;28;20219;-65
2022/11/27 06:04:33;;;;;;;22.13;13.73;;;;;;;;;;4976406;28;20019;-65
2022/11/27 06:06:59;;;;;;;19.25;12.65;;;;;;;;;;4976949;28;20084;-67
2022/11/27 06:09:25;;;;;;;24.00;13.30;;;;;;;;;;4976474;28;20027;-65
2022/11/27 06:11:51;;;;;;;21.25;13.18;;;;;;;;;;4994312;28;20057;-65
2022/11/27 06:14:17;;;;;;;22.13;13.00;;;;;;;;;;4993748;28;20030;-69
2022/11/27 06:16:43;;;;;;;22.17;12.75;;;;;;;;;;4994254;28;20734;-65
2022/11/27 06:19:09;;;;;;;22.98;12.20;;;;;;;;;;4992725;28;20113;-65
2022/11/27 06:21:35;;;;;;;21.50;12.48;;;;;;;;;;4993785;28;20498;-65
2022/11/27 06:24:02;;;;;;;22.33;12.60;;;;;;;;;;4993474;28;20027;-65
2022/11/27 06:26:29;;;;;;;22.08;12.45;;;;;;;;;;4993878;28;20109;-65
2022/11/27 06:28:55;;;;;;;21.65;12.50;;;;;;;;;;4992402;28;20050;-66
2022/11/27 06:31:23;;;;;;;20.60;12.40;;;;;;;;;;4993667;28;20019;-66
2022/11/27 06:33:50;;;;;;;19.70;11.77;;;;;;;;;;4993100;28;20110;-65
2022/11/27 06:36:16;;;;;;;21.90;12.45;;;;;;;;;;4993221;28;20438;-65
2022/11/27 06:38:43;;;;;;;22.33;12.57;;;;;;;;;;4993062;28;20022;-67
2022/11/27 06:41:10;;;;;;;23.13;13.00;;;;;;;;;;4993604;28;20094;-66
2022/11/27 06:43:36;;;;;;;26.08;13.32;;;;;;;;;;4991331;28;20029;-66
2022/11/27 06:46:03;;;;;;;22.75;11.98;;;;;;;;;;4992179;28;20084;-66
2022/11/27 06:48:29;;;;;;;20.65;12.00;;;;;;;;;;4991793;28;20474;-65
2022/11/27 06:50:58;;;;;;;21.45;11.75;;;;;;;;;;4993095;28;20034;-66
2022/11/27 06:53:24;;;;;;;20.80;12.57;;;;;;;;;;4991907;28;20023;-65
2022/11/27 06:55:50;;;;;;;20.42;12.10;;;;;;;;;;4993201;28;20041;-67
2022/11/27 06:58:16;;;;;;;22.48;11.55;;;;;;;;;;4992508;28;20028;-65
2022/11/27 07:00:42;;;;;;;21.65;11.30;;;;;;;;;;4992853;28;20018;-63
2022/11/27 07:03:08;;;;;;;20.42;11.77;;;;;;;;;;4992984;28;20494;-66
2022/11/27 07:05:35;;;;;;;22.15;12.20;;;;;;;;;;4993056;28;20026;-66
2022/11/27 07:08:01;;;;;;;20.02;11.73;;;;;;;;;;4992034;28;20026;-65
2022/11/27 07:10:27;;;;;;;23.40;12.35;;;;;;;;;;4992912;28;20403;-65
2022/11/27 07:12:53;;;;;;;23.38;12.88;;;;;;;;;;4991927;28;20022;-66
2022/11/27 07:15:19;;;;;;;23.75;12.48;;;;;;;;;;4992734;28;20065;-66
2022/11/27 07:17:45;;;;;;;19.33;10.85;;;;;;;;;;4992880;28;20061;-65
2022/11/27 07:20:11;;;;;;;23.13;11.75;;;;;;;;;;4991376;28;20528;-65
2022/11/27 07:22:37;;;;;;;21.30;11.90;;;;;;;;;;4991761;28;20483;-65
2022/11/27 07:25:03;;;;;;;19.38;11.88;;;;;;;;;;4992713;28;20029;-67
2022/11/27 07:27:29;;;;;;;21.77;11.90;;;;;;;;;;4992769;28;20482;-66
2022/11/27 07:29:55;;;;;;;23.63;11.40;;;;;;;;;;4991481;28;20177;-66
2022/11/27 07:32:21;;;;;;;21.50;11.70;;;;;;;;;;4991660;28;20053;-66
2022/11/27 07:34:47;;;;;;;20.60;11.02;;;;;;;;;;4991431;28;20025;-66
2022/11/27 07:37:13;;;;;;;22.70;12.02;;;;;;;;;;4992963;28;20540;-66
2022/11/27 07:39:39;;;;;;;19.80;10.00;;;;;;;;;;4992295;28;20031;-66
2022/11/27 07:42:05;;;;;;;19.67;10.75;;;;;;;;;;4992272;28;20069;-66
2022/11/27 07:44:31;;;;;;;18.95;10.20;;;;;;;;;;4993327;28;20025;-65
2022/11/27 07:46:57;;;;;;;19.75;10.18;;;;;;;;;;4991729;28;20121;-65
2022/11/27 07:49:23;;;;;;;19.13;10.30;;;;;;;;;;4993229;28;20041;-65
2022/11/27 07:51:49;;;;;;;19.35;10.40;;;;;;;;;;4991598;28;20034;-64
2022/11/27 07:54:15;;;;;;;19.75;11.32;;;;;;;;;;4994200;28;20030;-65
2022/11/27 07:56:41;;;;;;;18.45;10.27;;;;;;;;;;4994934;28;20046;-65
2022/11/27 07:59:07;;;;;;;21.92;11.32;;;;;;;;;;4996257;28;20423;-65
2022/11/27 08:01:33;;;;;;;22.52;11.98;;;;;;;;;;4996108;28;20022;-64
2022/11/27 08:03:58;;;;;;;21.30;10.63;;;;;;;;;;4994635;28;20095;-64
2022/11/27 08:06:25;;;;;;;21.67;10.73;;;;;;;;;;4996508;28;20535;-64
2022/11/27 08:08:53;;;;;;;21.58;10.50;;;;;;;;;;4995992;28;20035;-65
2022/11/27 08:11:19;;;;;;;21.17;11.48;;;;;;;;;;4996090;28;20074;-65
2022/11/27 08:13:45;;;;;;;20.23;9.63;;;;;;;;;;4994664;28;20050;-64
2022/11/27 08:16:11;;;;;;;21.27;10.90;;;;;;;;;;4996053;28;20473;-65
2022/11/27 08:18:37;;;;;;;19.27;10.50;;;;;;;;;;4994623;28;20027;-62
2022/11/27 08:21:03;;;;;;;18.65;10.45;;;;;;;;;;4995733;28;20057;-65
2022/11/27 08:23:29;;;;;;;19.38;11.13;;;;;;;;;;4995683;28;20389;-64
2022/11/27 08:25:55;;;;;;;21.05;11.50;;;;;;;;;;4994755;28;20126;-64
2022/11/27 08:28:21;;;;;;;22.67;11.52;;;;;;;;;;4994493;28;20022;-62
2022/11/27 08:30:55;;;;;;;19.38;11.32;;;;;;;;;;4996059;28;20038;-65
2022/11/27 08:33:21;;;;;;;20.10;10.57;;;;;;;;;;4994805;28;20273;-66
2022/11/27 08:35:48;;;;;;;20.65;10.95;;;;;;;;;;4995026;28;20065;-66
2022/11/27 08:38:14;;;;;;;19.55;11.35;;;;;;;;;;4995394;28;20130;-66
2022/11/27 08:40:39;;;;;;;22.80;12.07;;;;;;;;;;4994181;28;20080;-66
2022/11/27 08:43:06;;;;;;;24.77;11.75;;;;;;;;;;4993810;28;20073;-67
2022/11/27 08:45:32;;;;;;;21.45;11.13;;;;;;;;;;4995205;28;20057;-66
2022/11/27 08:47:58;;;;;;;20.38;10.80;;;;;;;;;;4994376;28;20033;-66
2022/11/27 08:50:24;;;;;;;21.02;10.50;;;;;;;;;;4995142;28;20105;-64
2022/11/27 08:52:50;;;;;;;19.85;10.77;;;;;;;;;;4994936;28;20033;-65
2022/11/27 08:55:16;;;;;;;18.52;11.32;;;;;;;;;;4993577;28;20027;-64
2022/11/27 08:57:42;;;;;;;18.02;10.60;;;;;;;;;;4993878;28;20038;-65
2022/11/27 09:00:08;;;;;;;20.15;10.60;;;;;;;;;;4993431;28;20454;-65
2022/11/27 09:02:34;;;;;;;25.13;11.82;;;;;;;;;;4995036;28;20022;-63
2022/11/27 09:05:01;;;;;;;18.75;10.30;;;;;;;;;;4994008;28;20022;-63
2022/11/27 09:07:28;;;;;;;17.98;10.18;;;;;;;;;;4993323;28;20048;-62
2022/11/27 09:09:54;;;;;;;22.90;10.88;;;;;;;;;;4994145;28;20018;-63
2022/11/27 09:12:20;;;;;;;20.55;11.00;;;;;;;;;;4994319;28;20106;-64
2022/11/27 09:14:46;;;;;;;18.38;10.18;;;;;;;;;;4994180;28;20061;-64
2022/11/27 09:17:12;;;;;;;20.55;11.13;;;;;;;;;;4992821;28;20054;-64
2022/11/27 09:19:39;;;;;;;20.30;10.63;;;;;;;;;;4992904;28;20053;-62
2022/11/27 09:22:05;;;;;;;19.98;10.43;;;;;;;;;;4994006;28;20034;-63
2022/11/27 09:24:31;;;;;;;20.15;11.25;;;;;;;;;;5003806;28;20070;-63
2022/11/27 09:26:57;;;;;;;20.33;10.40;;;;;;;;;;4994020;28;20627;-61
2022/11/27 09:29:23;;;;;;;21.58;10.95;;;;;;;;;;4993680;28;20094;-63
2022/11/27 09:31:50;;;;;;;19.58;10.75;;;;;;;;;;4993740;28;20089;-60
2022/11/27 09:34:16;;;;;;;22.83;12.18;;;;;;;;;;4993923;28;20113;-63
2022/11/27 09:36:42;;;;;;;21.15;11.60;;;;;;;;;;4993016;28;20437;-63
2022/11/27 09:39:09;;;;;;;20.10;11.65;;;;;;;;;;4992753;28;20129;-64
2022/11/27 09:41:38;;;;;;;21.08;11.55;;;;;;;;;;4993038;28;20019;-63
2022/11/27 09:44:24;;;;;;;21.30;11.57;;;;;;;;;;4994379;28;20080;-65
2022/11/27 09:46:51;;;;;;;23.17;11.40;;;;;;;;;;4970311;28;20047;-64
2022/11/27 09:49:20;;;;;;;21.02;11.30;;;;;;;;;;4994612;28;20053;-64
2022/11/27 09:52:06;;;;;;;21.77;11.25;;;;;;;;;;4994405;28;20018;-65
2022/11/27 09:54:53;;;;;;;22.80;12.68;;;;;;;;;;4976230;28;20034;-64
2022/11/27 09:57:21;;;;;;;20.90;11.70;;;;;;;;;;4993885;28;20041;-65
2022/11/27 09:59:51;;;;;;;19.75;11.23;;;;;;;;;;4993380;28;20019;-63
2022/11/27 10:02:27;;;;;;;21.08;12.07;;;;;;;;;;4994181;28;20084;-65
2022/11/27 10:04:54;;;;;;;19.85;11.57;;;;;;;;;;4993772;28;20019;-65
2022/11/27 10:07:23;;;;;;;19.98;11.20;;;;;;;;;;4992805;28;20038;-65
2022/11/27 10:09:54;;;;;;;21.75;11.93;;;;;;;;;;4993537;28;20553;-66
2022/11/27 10:12:20;;;;;;;20.52;11.98;;;;;;;;;;4993560;28;20034;-66
2022/11/27 10:14:46;;;;;;;22.10;11.70;;;;;;;;;;4993253;28;20036;-64
2022/11/27 10:17:12;;;;;;;18.75;11.13;;;;;;;;;;4992409;28;20026;-65
2022/11/27 10:19:50;;;;;;;21.83;12.35;;;;;;;;;;4993335;28;20027;-65
2022/11/27 10:22:30;;;;;;;23.88;11.75;;;;;;;;;;4991782;28;20077;-64
2022/11/27 10:24:56;;;;;;;20.35;11.13;;;;;;;;;;4991961;28;20026;-63
2022/11/27 10:27:29;;;;;;;23.00;13.05;;;;;;;;;;4992933;28;20041;-65
2022/11/27 10:29:56;;;;;;;17.40;10.95;;;;;;;;;;4992791;28;20030;-65
2022/11/27 10:32:24;;;;;;;19.75;11.50;;;;;;;;;;4992868;28;20494;-65
2022/11/27 10:34:50;;;;;;;;;;;;;;;;;;4993161;28;20030;-65
2022/11/27 10:37:25;;;;;;;22.98;11.73;;;;;;;;;;4992506;28;19956;-65
2022/11/27 10:40:00;;;;;;;20.77;12.00;;;;;;;;;;4991361;28;20033;-65
2022/11/27 10:42:35;;;;;;;20.88;11.27;;;;;;;;;;4993123;28;20026;-66
2022/11/27 10:45:04;;;;;;;22.45;13.43;;;;;;;;;;4991395;28;20030;-66
2022/11/27 10:47:30;;;;;;;21.58;12.20;;;;;;;;;;4992674;28;20018;-65
2022/11/27 10:49:56;;;;;;;21.40;11.57;;;;;;;;;;4992914;28;20108;-65
2022/11/27 10:52:22;;;;;;;21.65;13.02;;;;;;;;;;4992875;28;20057;-66
2022/11/27 10:55:11;;;;;;;22.58;12.05;;;;;;;;;;4991190;28;20406;-65
2022/11/27 10:57:38;;;;;;;22.95;11.32;;;;;;;;;;4992416;28;20033;-65
2022/11/27 11:00:06;;;;;;;23.30;13.10;;;;;;;;;;4991223;28;20054;-65
2022/11/27 11:02:34;;;;;;;20.85;11.88;;;;;;;;;;4992628;28;20014;-66
2022/11/27 11:05:10;;;;;;;20.20;11.68;;;;;;;;;;4992484;28;20026;-64
2022/11/27 11:07:36;;;;;;;22.30;11.38;;;;;;;;;;4992711;28;20027;-63
2022/11/27 11:10:02;;;;;;;20.23;11.50;;;;;;;;;;4992703;28;20047;-64
2022/11/27 11:12:28;;;;;;;20.60;12.00;;;;;;;;;;4992784;28;20117;-63
2022/11/27 11:14:56;;;;;;;21.55;12.00;;;;;;;;;;4992048;28;20022;-64
2022/11/27 11:17:26;;;;;;;21.02;12.55;;;;;;;;;;4992156;28;20106;-65
2022/11/27 11:19:52;;;;;;;21.70;12.75;;;;;;;;;;4992207;28;20027;-65
2022/11/27 11:22:18;;;;;;;20.35;11.68;;;;;;;;;;4992474;28;20030;-66
2022/11/27 11:24:46;;;;;;;24.70;12.75;;;;;;;;;;4991824;28;20018;-63
2022/11/27 11:27:14;;;;;;;24.30;12.60;;;;;;;;;;4990838;28;20402;-65
2022/11/27 11:29:46;;;;;;;22.98;11.50;;;;;;;;;;5023387;23;20041;-60
2022/11/27 11:32:12;;;;;;;21.45;12.40;;;;;;;;;;5014194;28;20044;-62
2022/11/27 11:34:51;;;;;;;21.85;13.57;;;;;;;;;;5014437;28;20536;-62
2022/11/27 11:37:17;;;;;;;22.02;13.13;;;;;;;;;;5015269;28;20030;-61
2022/11/27 11:39:48;;;;;;;20.52;12.77;;;;;;;;;;5013993;28;20034;-63
2022/11/27 11:42:24;;;;;;;20.35;11.95;;;;;;;;;;5014972;28;20041;-58
2022/11/27 11:44:52;;;;;;;25.02;13.07;;;;;;;;;;5015126;28;20022;-64
2022/11/27 11:47:19;;;;;;;24.63;12.68;;;;;;;;;;5015650;28;20040;-62
2022/11/27 11:49:45;;;;;;;19.90;12.48;;;;;;;;;;4664458;28;10000389;-64
2022/11/27 11:52:20;;;;;;;23.95;13.52;;;;;;;;;;5010727;28;20560;-63
2022/11/27 11:55:02;;;;;;;21.10;12.43;;;;;;;;;;5003697;28;20036;-61
2022/11/27 11:57:34;;;;;;;23.48;13.07;;;;;;;;;;5005171;28;20061;-62
2022/11/27 12:00:03;;;;;;;20.58;12.15;;;;;;;;;;4992382;28;20462;-64
2022/11/27 12:02:49;;;;;;;22.40;12.68;;;;;;;;;;4991332;28;20034;-64
2022/11/27 12:05:18;;;;;;;22.17;13.18;;;;;;;;;;4961526;28;20035;-63
2022/11/27 12:07:50;;;;;;;20.70;12.75;;;;;;;;;;4992705;28;20030;-62
2022/11/27 12:10:21;;;;;;;22.20;13.60;;;;;;;;;;5001283;28;20117;-65
2022/11/27 12:12:56;;;;;;;20.55;12.38;;;;;;;;;;5011451;28;20053;-60
2022/11/27 12:15:38;;;;;;;21.63;12.80;;;;;;;;;;5012413;28;20028;-61
2022/11/27 12:18:09;;;;;;;22.00;13.40;;;;;;;;;;5011506;28;20083;-65
2022/11/27 12:20:35;;;;;;;24.55;13.63;;;;;;;;;;5014095;28;20367;-62
2022/11/27 12:23:01;;;;;;;20.08;12.25;;;;;;;;;;4665133;28;10000553;-65
2022/11/27 12:25:27;;;;;;;23.33;12.82;;;;;;;;;;5010940;28;20455;-61
2022/11/27 12:27:54;;;;;;;23.80;12.50;;;;;;;;;;5012287;28;20309;-65
2022/11/27 12:30:31;;;;;;;21.83;12.73;;;;;;;;;;5010619;28;20073;-62
2022/11/27 12:33:03;;;;;;;21.38;12.90;;;;;;;;;;5010338;28;20048;-62
2022/11/27 12:35:32;;;;;;;23.38;12.13;;;;;;;;;;5012697;28;20026;-65
2022/11/27 12:38:17;;;;;;;21.05;12.15;;;;;;;;;;5007737;28;20510;-64
2022/11/27 12:41:02;;;;;;;22.38;11.52;;;;;;;;;;5010620;28;20033;-64
2022/11/27 12:43:31;;;;;;;20.08;12.25;;;;;;;;;;5012459;28;20748;-64
2022/11/27 12:45:57;;;;;;;22.50;13.13;;;;;;;;;;5012351;28;20034;-62
2022/11/27 12:48:26;;;;;;;23.65;13.00;;;;;;;;;;5011760;28;20108;-62
2022/11/27 12:51:13;;;;;;;23.35;12.32;;;;;;;;;;5011109;28;20036;-61
2022/11/27 12:53:39;;;;;;;22.90;12.57;;;;;;;;;;5011203;28;20030;-64
2022/11/27 12:56:24;;;;;;;21.98;11.68;;;;;;;;;;5011148;28;20034;-65
2022/11/27 12:58:52;;;;;;;21.88;11.63;;;;;;;;;;5009358;28;20026;-61
2022/11/27 13:01:22;;;;;;;21.00;11.20;;;;;;;;;;5010592;28;20153;-62
2022/11/27 13:03:59;;;;;;;21.83;11.95;;;;;;;;;;5010914;28;20117;-61
2022/11/27 13:06:27;;;;;;;22.30;12.05;;;;;;;;;;5011398;28;20105;-63
2022/11/27 13:08:57;;;;;;;21.02;12.45;;;;;;;;;;5011127;28;20109;-61
2022/11/27 13:11:30;;;;;;;20.25;11.82;;;;;;;;;;5010602;28;20458;-61
2022/11/27 13:14:03;;;;;;;22.42;12.60;;;;;;;;;;5009511;28;20113;-59
2022/11/27 13:16:37;;;;;;;21.50;11.98;;;;;;;;;;5004446;28;20045;-65
2022/11/27 13:19:23;;;;;;;22.30;14.15;;;;;;;;;;5010263;28;20563;-63
2022/11/27 13:21:51;;;;;;;21.10;12.68;;;;;;;;;;5008165;28;20030;-65
2022/11/27 13:24:17;;;;;;;25.70;12.70;;;;;;;;;;4999600;28;20029;-61
2022/11/27 13:27:01;;;;;;;21.33;12.18;;;;;;;;;;4990810;28;20362;-64
2022/11/27 13:29:29;;;;;;;21.35;12.15;;;;;;;;;;4991075;28;20158;-64
2022/11/27 13:31:57;;;;;;;20.90;11.25;;;;;;;;;;4991075;28;20612;-63
2022/11/27 13:34:25;;;;;;;20.25;11.57;;;;;;;;;;4991641;28;20042;-63
2022/11/27 13:36:56;;;;;;;21.50;11.38;;;;;;;;;;4991516;28;20037;-61
2022/11/27 13:39:22;;;;;;;19.50;10.73;;;;;;;;;;4990660;28;20027;-64
2022/11/27 13:41:58;;;;;;;20.42;10.75;;;;;;;;;;4989288;28;20027;-63
2022/11/27 13:44:28;;;;;;;19.40;10.77;;;;;;;;;;4990690;28;20026;-64
2022/11/27 13:46:56;;;;;;;20.35;10.85;;;;;;;;;;4990347;28;20478;-62
2022/11/27 13:49:32;;;;;;;17.98;10.35;;;;;;;;;;4990961;28;20065;-61
2022/11/27 13:52:10;;;;;;;17.90;10.45;;;;;;;;;;5010527;28;20426;-64
2022/11/27 13:54:36;;;;;;;18.95;10.60;;;;;;;;;;4997215;28;20100;-64
2022/11/27 13:57:09;;;;;;;18.35;10.45;;;;;;;;;;5012350;28;20030;-64
2022/11/27 13:59:35;;;;;;;19.88;10.27;;;;;;;;;;4993075;28;20029;-56
2022/11/27 14:02:03;;;;;;;19.00;10.50;;;;;;;;;;4993002;28;20443;-62
2022/11/27 14:04:30;;;;;;;19.73;10.70;;;;;;;;;;4992968;28;20021;-63
2022/11/27 14:07:02;;;;;;;20.70;11.95;;;;;;;;;;4992532;28;20109;-64
2022/11/27 14:09:51;;;;;;;23.55;12.93;;;;;;;;;;4992638;28;20107;-63
2022/11/27 14:12:37;;;;;;;20.10;11.48;;;;;;;;;;4982617;28;20494;-64
2022/11/27 14:15:04;;;;;;;19.73;10.90;;;;;;;;;;4661685;28;10000292;-64
2022/11/27 14:17:47;;;;;;;22.20;12.23;;;;;;;;;;5009220;28;20038;-62
2022/11/27 14:20:17;;;;;;;20.30;11.40;;;;;;;;;;5007866;28;20033;-63
2022/11/27 14:22:43;;;;;;;25.27;11.70;;;;;;;;;;5008138;28;20101;-62
2022/11/27 14:25:17;;;;;;;19.23;11.00;;;;;;;;;;5009219;28;20056;-64
2022/11/27 14:27:44;;;;;;;22.90;12.73;;;;;;;;;;5009289;28;20030;-61